createdAt,value
2019-06-10T00:00:37.215Z,65.23
2019-06-10T00:01:37.265Z,65.23
2019-06-10T00:02:37.226Z,65.64
2019-06-10T00:03:37.201Z,65.33
2019-06-10T00:04:37.204Z,65.33
2019-06-10T00:05:37.169Z,65.87
2019-06-10T00:06:37.156Z,66.38
2019-06-10T00:07:37.155Z,65.36
2019-06-10T00:08:37.131Z,65.87
2019-06-10T00:09:37.110Z,65.97
2019-06-10T00:10:37.089Z,65.87
2019-06-10T00:11:37.109Z,65.77
2019-06-10T00:12:37.117Z,65.56
2019-06-10T00:13:37.090Z,66.07
2019-06-10T00:14:37.063Z,65.97
2019-06-10T00:15:37.064Z,66.17
2019-06-10T00:16:37.048Z,65.97
2019-06-10T00:17:50.678Z,66.07
2019-06-10T00:18:42.039Z,65.97
2019-06-10T00:19:38.010Z,66.17
2019-06-10T00:20:37.005Z,66.38
2019-06-10T00:21:36.968Z,66.27
2019-06-10T00:22:36.994Z,66.27
2019-06-10T00:23:36.958Z,66.50
2019-06-10T00:24:36.960Z,66.81
2019-06-10T00:25:36.956Z,66.61
2019-06-10T00:26:36.923Z,66.61
2019-06-10T00:27:36.938Z,66.71
2019-06-10T00:28:36.910Z,66.30
2019-06-10T00:29:36.895Z,66.50
2019-06-10T00:30:36.893Z,66.50
2019-06-10T00:31:36.872Z,66.50
2019-06-10T00:32:36.888Z,66.41
2019-06-10T00:33:36.853Z,66.81
2019-06-10T00:34:36.834Z,66.50
2019-06-10T00:35:36.850Z,67.01
2019-06-10T00:36:36.823Z,67.32
2019-06-10T00:37:36.822Z,67.22
2019-06-10T00:38:36.788Z,67.01
2019-06-10T00:39:36.784Z,66.41
2019-06-10T00:40:36.789Z,66.61
2019-06-10T00:41:36.779Z,66.91
2019-06-10T00:42:36.783Z,66.61
2019-06-10T00:43:36.762Z,66.41
2019-06-10T00:44:36.737Z,66.71
2019-06-10T00:45:36.734Z,67.42
2019-06-10T00:46:36.706Z,66.91
2019-06-10T00:47:36.724Z,67.22
2019-06-10T00:48:36.702Z,67.01
2019-06-10T00:49:36.684Z,66.71
2019-06-10T00:50:36.661Z,67.32
2019-06-10T00:51:36.655Z,67.22
2019-06-10T00:52:36.675Z,66.91
2019-06-10T00:53:36.625Z,67.25
2019-06-10T00:54:36.627Z,67.45
2019-06-10T00:55:36.652Z,67.45
2019-06-10T00:56:36.602Z,66.94
2019-06-10T00:57:36.595Z,67.05
2019-06-10T00:58:36.564Z,67.05
2019-06-10T00:59:36.573Z,67.76
2019-06-10T01:00:36.555Z,67.55
2019-06-10T01:01:36.581Z,67.14
2019-06-10T01:02:36.547Z,67.05
2019-06-10T01:03:36.528Z,67.55
2019-06-10T01:04:36.507Z,67.25
2019-06-10T01:05:36.514Z,68.06
2019-06-10T01:06:36.512Z,67.76
2019-06-10T01:07:36.494Z,67.96
2019-06-10T01:08:36.470Z,68.16
2019-06-10T01:09:36.468Z,67.65
2019-06-10T01:10:36.441Z,67.35
2019-06-10T01:11:36.432Z,67.35
2019-06-10T01:12:36.437Z,67.45
2019-06-10T01:13:36.403Z,67.25
2019-06-10T01:14:36.402Z,67.25
2019-06-10T01:15:36.386Z,67.45
2019-06-10T01:16:36.371Z,67.96
2019-06-10T01:17:36.402Z,67.65
2019-06-10T01:18:38.555Z,67.45
2019-06-10T01:19:36.346Z,68.06
2019-06-10T01:20:36.334Z,67.25
2019-06-10T01:21:36.341Z,67.55
2019-06-10T01:22:36.361Z,67.65
2019-06-10T01:23:36.309Z,68.16
2019-06-10T01:24:36.301Z,67.45
2019-06-10T01:25:36.290Z,68.06
2019-06-10T01:26:36.281Z,67.25
2019-06-10T01:27:36.300Z,67.45
2019-06-10T01:28:36.259Z,67.96
2019-06-10T01:29:36.251Z,67.85
2019-06-10T01:30:36.230Z,68.06
2019-06-10T01:31:36.235Z,67.65
2019-06-10T01:32:36.228Z,67.55
2019-06-10T01:33:36.183Z,67.48
2019-06-10T01:34:36.179Z,67.96
2019-06-10T01:35:36.160Z,67.58
2019-06-10T01:36:36.167Z,67.79
2019-06-10T01:37:36.169Z,67.89
2019-06-10T01:38:36.130Z,67.58
2019-06-10T01:39:36.119Z,67.99
2019-06-10T01:40:36.130Z,68.70
2019-06-10T01:41:36.100Z,68.49
2019-06-10T01:42:36.128Z,68.70
2019-06-10T01:43:36.088Z,68.29
2019-06-10T01:44:36.077Z,68.60
2019-06-10T01:45:36.068Z,68.70
2019-06-10T01:46:36.066Z,68.09
2019-06-10T01:47:36.076Z,68.49
2019-06-10T01:48:44.244Z,67.99
2019-06-10T01:49:37.025Z,68.19
2019-06-10T01:50:36.017Z,68.40
2019-06-10T01:51:36.009Z,68.29
2019-06-10T01:52:36.015Z,68.49
2019-06-10T01:53:35.955Z,68.90
2019-06-10T01:54:35.946Z,67.99
2019-06-10T01:55:35.944Z,68.09
2019-06-10T01:56:35.945Z,68.60
2019-06-10T01:57:35.916Z,69.20
2019-06-10T01:58:35.956Z,68.90
2019-06-10T01:59:35.900Z,68.70
2019-06-10T02:00:35.888Z,68.70
2019-06-10T02:01:35.890Z,68.49
2019-06-10T02:02:35.859Z,68.49
2019-06-10T02:03:35.875Z,68.70
2019-06-10T02:04:35.835Z,69.00
2019-06-10T02:05:35.845Z,69.41
2019-06-10T02:06:35.822Z,68.60
2019-06-10T02:07:35.815Z,68.80
2019-06-10T02:08:35.823Z,69.13
2019-06-10T02:09:35.792Z,69.34
2019-06-10T02:10:35.785Z,68.83
2019-06-10T02:11:35.762Z,69.03
2019-06-10T02:12:35.755Z,68.93
2019-06-10T02:13:35.776Z,68.73
2019-06-10T02:14:35.738Z,69.13
2019-06-10T02:15:35.732Z,69.24
2019-06-10T02:16:35.716Z,69.13
2019-06-10T02:17:35.689Z,69.13
2019-06-10T02:18:35.715Z,68.73
2019-06-10T02:19:35.673Z,69.13
2019-06-10T02:20:35.665Z,69.13
2019-06-10T02:21:35.635Z,68.93
2019-06-10T02:22:35.650Z,68.43
2019-06-10T02:23:35.656Z,68.52
2019-06-10T02:24:35.620Z,68.73
2019-06-10T02:25:35.607Z,69.13
2019-06-10T02:26:35.600Z,68.63
2019-06-10T02:27:35.605Z,68.70
2019-06-10T02:28:35.592Z,68.52
2019-06-10T02:29:35.567Z,69.13
2019-06-10T02:30:44.222Z,68.83
2019-06-10T02:31:37.757Z,68.52
2019-06-10T02:32:37.613Z,68.93
2019-06-10T02:33:36.676Z,69.61
2019-06-10T02:34:42.865Z,68.49
2019-06-10T02:35:44.208Z,68.29
2019-06-10T02:36:37.164Z,68.80
2019-06-10T02:37:38.263Z,68.80
2019-06-10T02:38:39.622Z,69.00
2019-06-10T02:39:39.013Z,69.10
2019-06-10T02:40:36.516Z,69.41
2019-06-10T02:41:36.398Z,68.90
2019-06-10T02:42:36.212Z,69.20
2019-06-10T02:43:37.574Z,69.51
2019-06-10T02:44:37.505Z,69.20
2019-06-10T02:45:37.650Z,69.41
2019-06-10T02:46:36.136Z,69.00
2019-06-10T02:47:37.955Z,69.41
2019-06-10T02:48:35.692Z,69.41
2019-06-10T02:49:52.627Z,69.71
2019-06-10T02:50:36.603Z,70.01
2019-06-10T02:51:35.953Z,69.10
2019-06-10T02:52:38.509Z,69.31
2019-06-10T02:53:36.653Z,69.61
2019-06-10T02:54:36.077Z,69.71
2019-06-10T02:55:35.366Z,69.61
2019-06-10T02:56:36.882Z,69.44
2019-06-10T02:57:40.139Z,69.03
2019-06-10T02:58:38.859Z,69.54
2019-06-10T02:59:36.246Z,69.44
2019-06-10T03:00:43.171Z,70.15
2019-06-10T03:01:38.056Z,69.64
2019-06-10T03:02:36.411Z,69.84
2019-06-10T03:03:42.893Z,70.05
2019-06-10T03:04:37.685Z,70.25
2019-06-10T03:05:41.075Z,69.74
2019-06-10T03:06:39.947Z,70.05
2019-06-10T03:07:35.799Z,70.05
2019-06-10T03:08:36.597Z,70.96
2019-06-10T03:09:35.872Z,69.95
2019-06-10T03:10:37.279Z,70.35
2019-06-10T03:11:37.355Z,70.25
2019-06-10T03:12:35.098Z,70.15
2019-06-10T03:13:35.119Z,70.56
2019-06-10T03:14:35.065Z,70.15
2019-06-10T03:15:35.067Z,70.65
2019-06-10T03:16:35.050Z,70.56
2019-06-10T03:17:35.039Z,71.16
2019-06-10T03:18:35.053Z,71.16
2019-06-10T03:19:46.971Z,71.06
2019-06-10T03:20:35.995Z,71.06
2019-06-10T03:21:34.991Z,70.56
2019-06-10T03:22:34.980Z,70.76
2019-06-10T03:23:34.999Z,70.96
2019-06-10T03:24:34.975Z,71.37
2019-06-10T03:25:34.956Z,71.47
2019-06-10T03:26:34.935Z,71.37
2019-06-10T03:27:34.942Z,71.67
2019-06-10T03:28:34.946Z,72.21
2019-06-10T03:29:34.910Z,72.01
2019-06-10T03:30:47.410Z,71.91
2019-06-10T03:31:42.028Z,72.21
2019-06-10T03:32:41.172Z,71.80
2019-06-10T03:33:41.400Z,72.31
2019-06-10T03:34:41.624Z,72.31
2019-06-10T03:35:35.830Z,72.41
2019-06-10T03:36:34.819Z,72.21
2019-06-10T03:37:34.819Z,72.21
2019-06-10T03:38:37.010Z,72.61
2019-06-10T03:39:34.812Z,72.11
2019-06-10T03:40:34.782Z,72.21
2019-06-10T03:41:34.776Z,72.01
2019-06-10T03:42:34.760Z,72.31
2019-06-10T03:43:34.780Z,72.31
2019-06-10T03:44:34.764Z,72.01
2019-06-10T03:45:34.731Z,72.72
2019-06-10T03:46:34.716Z,71.91
2019-06-10T03:47:34.702Z,72.01
2019-06-10T03:48:34.724Z,72.41
2019-06-10T03:49:49.143Z,72.01
2019-06-10T03:50:35.685Z,72.01
2019-06-10T03:51:34.679Z,72.11
2019-06-10T03:52:34.662Z,72.11
2019-06-10T03:53:34.661Z,72.11
2019-06-10T03:54:34.630Z,71.70
2019-06-10T03:55:34.632Z,71.91
2019-06-10T03:56:34.611Z,72.11
2019-06-10T03:57:34.602Z,72.52
2019-06-10T03:58:34.625Z,72.41
2019-06-10T03:59:34.582Z,72.11
2019-06-10T04:00:36.929Z,72.41
2019-06-10T04:01:34.584Z,72.41
2019-06-10T04:02:34.574Z,72.17
2019-06-10T04:03:34.581Z,72.48
2019-06-10T04:04:34.541Z,72.21
2019-06-10T04:05:34.540Z,72.82
2019-06-10T04:06:34.513Z,72.92
2019-06-10T04:07:34.512Z,73.22
2019-06-10T04:08:34.519Z,73.22
2019-06-10T04:09:34.480Z,72.92
2019-06-10T04:10:34.470Z,73.12
2019-06-10T04:11:35.540Z,72.82
2019-06-10T04:12:34.426Z,73.09
2019-06-10T04:13:34.459Z,72.58
2019-06-10T04:14:34.425Z,72.78
2019-06-10T04:15:34.393Z,71.77
2019-06-10T04:16:34.398Z,71.94
2019-06-10T04:17:34.378Z,71.84
2019-06-10T04:18:34.404Z,71.84
2019-06-10T04:19:34.372Z,71.13
2019-06-10T04:20:34.358Z,71.84
2019-06-10T04:21:34.340Z,71.94
2019-06-10T04:22:34.340Z,71.64
2019-06-10T04:23:34.333Z,72.04
2019-06-10T04:24:34.303Z,71.73
2019-06-10T04:25:34.312Z,71.84
2019-06-10T04:26:34.262Z,71.94
2019-06-10T04:27:34.293Z,71.84
2019-06-10T04:28:34.259Z,72.04
2019-06-10T04:29:34.278Z,71.33
2019-06-10T04:30:34.237Z,71.53
2019-06-10T04:31:34.215Z,71.94
2019-06-10T04:32:34.205Z,71.30
2019-06-10T04:33:34.219Z,71.50
2019-06-10T04:34:34.213Z,71.50
2019-06-10T04:35:34.193Z,71.60
2019-06-10T04:36:34.167Z,70.79
2019-06-10T04:37:34.161Z,70.69
2019-06-10T04:38:34.153Z,71.30
2019-06-10T04:39:34.165Z,70.79
2019-06-10T04:40:34.139Z,71.06
2019-06-10T04:41:34.103Z,70.15
2019-06-10T04:42:34.104Z,70.45
2019-06-10T04:43:34.105Z,71.67
2019-06-10T04:44:34.115Z,71.06
2019-06-10T04:45:34.083Z,70.96
2019-06-10T04:46:34.050Z,70.65
2019-06-10T04:47:34.055Z,70.15
2019-06-10T04:48:34.039Z,70.96
2019-06-10T04:49:34.044Z,70.96
2019-06-10T04:50:42.197Z,70.45
2019-06-10T04:51:35.005Z,71.16
2019-06-10T04:52:33.994Z,70.96
2019-06-10T04:53:33.990Z,70.83
2019-06-10T04:54:33.999Z,70.93
2019-06-10T04:55:33.967Z,70.83
2019-06-10T04:56:33.978Z,70.42
2019-06-10T04:57:33.951Z,69.92
2019-06-10T04:58:33.934Z,70.12
2019-06-10T04:59:33.955Z,70.52
2019-06-10T05:00:33.906Z,70.52
2019-06-10T05:01:33.903Z,71.23
2019-06-10T05:02:33.886Z,70.73
2019-06-10T05:03:33.877Z,71.84
2019-06-10T05:04:33.879Z,70.22
2019-06-10T05:05:33.842Z,70.83
2019-06-10T05:06:33.844Z,70.32
2019-06-10T05:07:36.914Z,70.32
2019-06-10T05:08:34.106Z,71.03
2019-06-10T05:09:33.844Z,69.81
2019-06-10T05:10:33.825Z,70.52
2019-06-10T05:11:33.782Z,69.51
2019-06-10T05:12:33.785Z,69.61
2019-06-10T05:13:33.922Z,69.48
2019-06-10T05:14:33.784Z,69.78
2019-06-10T05:15:34.942Z,70.29
2019-06-10T05:16:35.968Z,69.58
2019-06-10T05:17:34.421Z,70.18
2019-06-10T05:18:33.718Z,71.17
2019-06-10T05:19:33.938Z,71.57
2019-06-10T05:20:51.096Z,70.76
2019-06-10T05:21:34.671Z,70.56
2019-06-10T05:22:33.674Z,71.57
2019-06-10T05:23:33.651Z,71.23
2019-06-10T05:24:34.465Z,70.32
2019-06-10T05:25:33.643Z,67.56
2019-06-10T05:26:33.850Z,68.77
2019-06-10T05:27:33.622Z,69.38
2019-06-10T05:28:34.347Z,69.48
2019-06-10T05:29:34.236Z,69.68
2019-06-10T05:30:34.090Z,69.04
2019-06-10T05:31:34.967Z,68.13
2019-06-10T05:32:33.613Z,67.93
2019-06-10T05:33:33.729Z,68.10
2019-06-10T05:34:34.765Z,66.99
2019-06-10T05:35:34.059Z,66.96
2019-06-10T05:36:34.694Z,65.92
2019-06-10T05:37:34.038Z,64.81
2019-06-10T05:38:35.321Z,64.38
2019-06-10T05:39:35.137Z,64.45
2019-06-10T05:40:34.296Z,65.02
2019-06-10T05:41:35.087Z,63.21
2019-06-10T05:42:35.852Z,62.58
2019-06-10T05:43:34.647Z,63.05
2019-06-10T05:44:34.626Z,62.32
2019-06-10T05:45:35.062Z,63.02
2019-06-10T05:46:34.949Z,60.71
2019-06-10T05:47:35.909Z,61.21
2019-06-10T05:48:35.095Z,61.51
2019-06-10T05:49:35.990Z,60.91
2019-06-10T05:50:34.886Z,60.61
2019-06-10T05:51:35.214Z,62.42
2019-06-10T05:52:35.033Z,60.74
2019-06-10T05:53:35.345Z,62.05
2019-06-10T05:54:35.291Z,61.24
2019-06-10T05:55:35.093Z,62.75
2019-06-10T05:56:35.174Z,61.44
2019-06-10T05:57:35.371Z,60.71
2019-06-10T05:58:35.852Z,61.11
2019-06-10T05:59:34.526Z,61.58
2019-06-10T06:00:35.307Z,59.38
2019-06-10T06:01:38.026Z,58.47
2019-06-10T06:02:35.530Z,59.55
2019-06-10T06:03:36.334Z,57.41
2019-06-10T06:04:34.694Z,57.28
2019-06-10T06:05:34.860Z,57.81
2019-06-10T06:06:35.197Z,58.31
2019-06-10T06:07:35.246Z,57.81
2019-06-10T06:08:35.349Z,58.64
2019-06-10T06:09:35.147Z,58.64
2019-06-10T06:10:35.541Z,59.47
2019-06-10T06:11:35.201Z,59.88
2019-06-10T06:12:34.534Z,60.41
2019-06-10T06:13:35.927Z,62.55
2019-06-10T06:14:35.624Z,62.05
2019-06-10T06:15:35.816Z,63.79
2019-06-10T06:16:35.996Z,64.02
2019-06-10T06:17:35.100Z,65.59
2019-06-10T06:18:35.011Z,67.10
2019-06-10T06:19:35.504Z,67.00
2019-06-10T06:20:35.762Z,66.67
2019-06-10T06:21:41.621Z,65.93
2019-06-10T06:22:35.538Z,65.96
2019-06-10T06:23:33.906Z,66.47
2019-06-10T06:24:35.528Z,66.50
2019-06-10T06:25:38.896Z,66.50
2019-06-10T06:26:37.655Z,67.00
2019-06-10T06:27:34.766Z,67.00
2019-06-10T06:28:35.741Z,67.17
2019-06-10T06:29:33.901Z,66.97
2019-06-10T06:30:34.863Z,66.27
2019-06-10T06:31:34.634Z,66.83
2019-06-10T06:32:33.728Z,66.83
2019-06-10T06:33:36.277Z,66.83
2019-06-10T06:34:35.852Z,66.50
2019-06-10T06:35:35.111Z,66.00
2019-06-10T06:36:36.601Z,66.17
2019-06-10T06:37:37.437Z,65.06
2019-06-10T06:38:35.358Z,65.80
2019-06-10T06:39:34.758Z,65.50
2019-06-10T06:40:35.609Z,64.99
2019-06-10T06:41:34.562Z,65.12
2019-06-10T06:42:35.068Z,65.30
2019-06-10T06:43:40.017Z,66.10
2019-06-10T06:44:37.365Z,65.47
2019-06-10T06:45:34.637Z,64.56
2019-06-10T06:46:36.583Z,64.53
2019-06-10T06:47:35.620Z,63.93
2019-06-10T06:48:35.696Z,64.30
2019-06-10T06:49:34.315Z,64.00
2019-06-10T06:50:34.653Z,63.70
2019-06-10T06:51:46.570Z,63.49
2019-06-10T06:53:04.203Z,62.99
2019-06-10T06:53:44.385Z,63.17
2019-06-10T06:54:36.098Z,62.46
2019-06-10T06:55:33.758Z,62.13
2019-06-10T06:56:36.117Z,61.19
2019-06-10T06:57:35.164Z,58.61
2019-06-10T06:58:35.204Z,57.48
2019-06-10T06:59:34.265Z,58.78
2019-06-10T07:00:48.964Z,58.58
2019-06-10T07:01:36.477Z,58.83
2019-06-10T07:02:34.577Z,59.66
2019-06-10T07:03:35.368Z,59.06
2019-06-10T07:04:34.283Z,60.10
2019-06-10T07:05:34.286Z,60.65
2019-06-10T07:06:34.168Z,61.86
2019-06-10T07:07:33.162Z,60.65
2019-06-10T07:08:33.318Z,60.72
2019-06-10T07:09:33.134Z,61.15
2019-06-10T07:10:33.215Z,62.26
2019-06-10T07:11:33.935Z,61.93
2019-06-10T07:12:33.742Z,61.17
2019-06-10T07:13:35.507Z,60.14
2019-06-10T07:14:36.744Z,60.27
2019-06-10T07:15:35.443Z,59.33
2019-06-10T07:16:34.520Z,59.20
2019-06-10T07:17:34.557Z,59.74
2019-06-10T07:18:35.300Z,60.31
2019-06-10T07:19:35.033Z,59.41
2019-06-10T07:20:33.771Z,57.98
2019-06-10T07:21:34.520Z,57.87
2019-06-10T07:22:36.186Z,57.45
2019-06-10T07:23:35.423Z,56.85
2019-06-10T07:24:36.019Z,58.65
2019-06-10T07:25:36.662Z,56.95
2019-06-10T07:26:35.723Z,56.65
2019-06-10T07:27:35.833Z,57.55
2019-06-10T07:28:34.258Z,57.98
2019-06-10T07:29:34.112Z,58.15
2019-06-10T07:30:36.939Z,57.28
2019-06-10T07:31:35.229Z,59.11
2019-06-10T07:32:34.143Z,59.81
2019-06-10T07:33:34.592Z,59.20
2019-06-10T07:34:33.943Z,59.38
2019-06-10T07:35:33.021Z,58.78
2019-06-10T07:36:32.948Z,58.70
2019-06-10T07:37:32.830Z,58.81
2019-06-10T07:38:33.921Z,59.94
2019-06-10T07:39:34.980Z,59.83
2019-06-10T07:40:33.420Z,59.94
2019-06-10T07:41:32.858Z,60.53
2019-06-10T07:42:33.265Z,60.33
2019-06-10T07:43:32.838Z,61.17
2019-06-10T07:44:33.372Z,62.17
2019-06-10T07:45:33.806Z,61.77
2019-06-10T07:46:33.488Z,60.57
2019-06-10T07:47:32.697Z,61.34
2019-06-10T07:48:33.513Z,60.81
2019-06-10T07:49:33.786Z,59.70
2019-06-10T07:50:33.351Z,60.65
2019-06-10T07:51:32.922Z,58.22
2019-06-10T07:52:33.157Z,58.42
2019-06-10T07:53:33.816Z,58.19
2019-06-10T07:54:33.303Z,57.17
2019-06-10T07:55:33.235Z,55.84
2019-06-10T07:56:37.221Z,56.57
2019-06-10T07:57:34.387Z,57.74
2019-06-10T07:58:33.280Z,56.96
2019-06-10T07:59:32.610Z,52.26
2019-06-10T08:00:33.725Z,49.38
2019-06-10T08:01:33.314Z,47.68
2019-06-10T08:02:32.681Z,47.86
2019-06-10T08:03:34.390Z,48.74
2019-06-10T08:04:33.595Z,48.40
2019-06-10T08:05:32.724Z,47.36
2019-06-10T08:06:33.521Z,46.79
2019-06-10T08:07:33.492Z,48.82
2019-06-10T08:08:32.885Z,48.25
2019-06-10T08:09:39.188Z,47.16
2019-06-10T08:10:32.977Z,47.07
2019-06-10T08:11:33.256Z,45.25
2019-06-10T08:12:32.542Z,44.06
2019-06-10T08:13:32.466Z,43.70
2019-06-10T08:14:32.967Z,41.75
2019-06-10T08:15:32.547Z,40.55
2019-06-10T08:16:32.773Z,41.17
2019-06-10T08:17:32.834Z,40.70
2019-06-10T08:18:38.146Z,38.62
2019-06-10T08:19:37.743Z,37.84
2019-06-10T08:20:32.809Z,37.63
2019-06-10T08:21:32.333Z,40.53
2019-06-10T08:22:37.292Z,40.00
2019-06-10T08:23:33.040Z,39.17
2019-06-10T08:24:32.918Z,38.25
2019-06-10T08:25:32.806Z,39.92
2019-06-10T08:26:32.457Z,38.23
2019-06-10T08:27:33.544Z,36.02
2019-06-10T08:28:33.175Z,35.32
2019-06-10T08:29:33.003Z,36.33
2019-06-10T08:30:32.900Z,37.92
2019-06-10T08:31:33.255Z,42.93
2019-06-10T08:32:33.494Z,43.96
2019-06-10T08:33:33.185Z,47.66
2019-06-10T08:34:32.941Z,46.72
2019-06-10T08:35:39.335Z,45.21
2019-06-10T08:36:33.323Z,45.05
2019-06-10T08:37:33.197Z,46.83
2019-06-10T08:38:32.981Z,45.72
2019-06-10T08:39:33.521Z,45.89
2019-06-10T08:40:32.559Z,45.39
2019-06-10T08:41:32.243Z,44.50
2019-06-10T08:42:32.372Z,43.79
2019-06-10T08:43:33.095Z,43.82
2019-06-10T08:44:32.733Z,43.15
2019-06-10T08:45:33.338Z,40.43
2019-06-10T08:46:32.985Z,40.16
2019-06-10T08:47:32.630Z,39.18
2019-06-10T08:48:32.907Z,40.51
2019-06-10T08:49:32.777Z,40.29
2019-06-10T08:50:33.759Z,41.09
2019-06-10T08:51:32.451Z,40.31
2019-06-10T08:52:48.935Z,42.38
2019-06-10T08:53:32.947Z,40.62
2019-06-10T08:54:32.449Z,41.99
2019-06-10T08:55:33.457Z,41.39
2019-06-10T08:56:32.793Z,41.20
2019-06-10T08:57:33.518Z,41.78
2019-06-10T08:58:33.136Z,41.69
2019-06-10T08:59:32.583Z,41.77
2019-06-10T09:00:33.222Z,42.58
2019-06-10T09:01:33.394Z,41.12
2019-06-10T09:02:33.436Z,40.08
2019-06-10T09:03:32.427Z,39.92
2019-06-10T09:04:33.070Z,38.60
2019-06-10T09:05:32.404Z,37.50
2019-06-10T09:06:33.006Z,40.41
2019-06-10T09:07:32.342Z,38.85
2019-06-10T09:08:32.603Z,38.10
2019-06-10T09:09:33.528Z,40.05
2019-06-10T09:10:33.733Z,41.38
2019-06-10T09:11:32.861Z,42.08
2019-06-10T09:12:36.430Z,44.32
2019-06-10T09:13:33.670Z,44.32
2019-06-10T09:14:32.627Z,42.72
2019-06-10T09:15:32.459Z,43.24
2019-06-10T09:16:32.359Z,43.83
2019-06-10T09:17:33.735Z,43.51
2019-06-10T09:18:33.662Z,42.99
2019-06-10T09:19:33.247Z,41.14
2019-06-10T09:20:33.201Z,38.50
2019-06-10T09:21:33.011Z,39.54
2019-06-10T09:22:32.714Z,40.51
2019-06-10T09:23:33.217Z,41.39
2019-06-10T09:24:32.801Z,40.72
2019-06-10T09:25:33.390Z,41.63
2019-06-10T09:26:33.507Z,42.72
2019-06-10T09:27:32.788Z,43.60
2019-06-10T09:28:32.827Z,41.38
2019-06-10T09:29:32.850Z,42.29
2019-06-10T09:30:33.416Z,43.47
2019-06-10T09:31:33.161Z,42.78
2019-06-10T09:32:32.536Z,42.50
2019-06-10T09:33:33.095Z,43.57
2019-06-10T09:34:33.034Z,43.96
2019-06-10T09:35:32.273Z,42.80
2019-06-10T09:36:32.531Z,42.11
2019-06-10T09:37:32.047Z,42.38
2019-06-10T09:38:33.406Z,41.67
2019-06-10T09:39:32.867Z,39.86
2019-06-10T09:40:33.803Z,39.94
2019-06-10T09:41:40.079Z,39.20
2019-06-10T09:42:33.309Z,41.25
2019-06-10T09:43:33.237Z,42.78
2019-06-10T09:44:33.247Z,44.68
2019-06-10T09:45:33.285Z,43.73
2019-06-10T09:46:33.111Z,43.67
2019-06-10T09:47:33.988Z,44.78
2019-06-10T09:48:33.312Z,46.79
2019-06-10T09:49:32.790Z,46.49
2019-06-10T09:50:33.303Z,45.68
2019-06-10T09:51:32.458Z,45.93
2019-06-10T09:52:32.856Z,45.68
2019-06-10T09:53:39.290Z,46.07
2019-06-10T09:54:33.547Z,46.42
2019-06-10T09:55:32.855Z,44.23
2019-06-10T09:56:33.005Z,43.41
2019-06-10T09:57:32.192Z,43.66
2019-06-10T09:58:32.912Z,42.14
2019-06-10T09:59:32.223Z,41.63
2019-06-10T10:00:33.084Z,41.57
2019-06-10T10:01:32.670Z,41.99
2019-06-10T10:02:33.084Z,42.48
2019-06-10T10:03:32.956Z,40.72
2019-06-10T10:04:32.740Z,40.70
2019-06-10T10:05:33.674Z,41.89
2019-06-10T10:06:32.709Z,40.78
2019-06-10T10:07:32.422Z,41.47
2019-06-10T10:08:32.748Z,42.46
2019-06-10T10:09:33.786Z,42.24
2019-06-10T10:10:32.737Z,41.75
2019-06-10T10:11:32.071Z,41.77
2019-06-10T10:12:32.665Z,42.60
2019-06-10T10:13:34.971Z,43.24
2019-06-10T10:14:30.676Z,43.95
2019-06-10T10:15:34.277Z,44.45
2019-06-10T10:16:33.696Z,44.37
2019-06-10T10:17:33.230Z,45.85
2019-06-10T10:18:32.924Z,46.09
2019-06-10T10:19:30.630Z,45.82
2019-06-10T10:20:30.635Z,46.09
2019-06-10T10:21:30.650Z,44.76
2019-06-10T10:22:30.581Z,43.02
2019-06-10T10:23:48.385Z,41.65
2019-06-10T10:24:34.025Z,40.51
2019-06-10T10:25:32.621Z,38.60
2019-06-10T10:26:30.597Z,39.58
2019-06-10T10:27:32.390Z,38.26
2019-06-10T10:28:33.192Z,39.40
2019-06-10T10:29:32.716Z,38.15
2019-06-10T10:30:33.048Z,38.30
2019-06-10T10:31:32.452Z,41.33
2019-06-10T10:32:33.253Z,42.72
2019-06-10T10:33:33.158Z,44.46
2019-06-10T10:34:33.162Z,45.10
2019-06-10T10:35:32.519Z,44.17
2019-06-10T10:36:33.373Z,43.89
2019-06-10T10:37:32.285Z,44.78
2019-06-10T10:38:30.421Z,43.12
2019-06-10T10:39:32.552Z,44.90
2019-06-10T10:40:32.598Z,46.59
2019-06-10T10:41:32.292Z,46.39
2019-06-10T10:42:42.739Z,45.57
2019-06-10T10:43:34.208Z,45.26
2019-06-10T10:44:31.998Z,44.46
2019-06-10T10:45:30.344Z,44.15
2019-06-10T10:46:32.486Z,43.21
2019-06-10T10:47:33.340Z,43.21
2019-06-10T10:48:30.309Z,43.69
2019-06-10T10:49:30.339Z,41.63
2019-06-10T10:50:30.299Z,42.72
2019-06-10T10:51:32.497Z,43.12
2019-06-10T10:52:32.860Z,43.71
2019-06-10T10:53:32.563Z,42.80
2019-06-10T10:54:35.987Z,41.28
2019-06-10T10:55:33.367Z,39.65
2019-06-10T10:56:30.251Z,39.95
2019-06-10T10:57:30.273Z,40.58
2019-06-10T10:58:32.240Z,39.78
2019-06-10T10:59:33.063Z,39.64
2019-06-10T11:00:34.240Z,40.11
2019-06-10T11:01:33.126Z,37.53
2019-06-10T11:02:32.173Z,37.83
2019-06-10T11:03:30.217Z,38.20
2019-06-10T11:04:32.665Z,38.18
2019-06-10T11:05:33.105Z,37.59
2019-06-10T11:06:32.153Z,38.87
2019-06-10T11:07:33.325Z,39.92
2019-06-10T11:08:32.405Z,39.31
2019-06-10T11:09:32.862Z,40.19
2019-06-10T11:10:32.855Z,38.85
2019-06-10T11:11:30.099Z,39.42
2019-06-10T11:12:30.132Z,38.22
2019-06-10T11:13:32.689Z,39.46
2019-06-10T11:14:30.074Z,41.20
2019-06-10T11:15:32.795Z,42.70
2019-06-10T11:16:32.862Z,41.59
2019-06-10T11:17:30.047Z,43.83
2019-06-10T11:18:30.012Z,46.23
2019-06-10T11:19:32.136Z,45.85
2019-06-10T11:20:30.032Z,44.46
2019-06-10T11:21:29.987Z,46.39
2019-06-10T11:22:30.004Z,45.16
2019-06-10T11:23:33.387Z,44.45
2019-06-10T11:24:37.631Z,42.50
2019-06-10T11:25:33.092Z,42.24
2019-06-10T11:26:32.720Z,40.55
2019-06-10T11:27:30.941Z,41.55
2019-06-10T11:28:31.937Z,42.02
2019-06-10T11:29:29.941Z,40.05
2019-06-10T11:30:32.253Z,40.45
2019-06-10T11:31:29.880Z,41.85
2019-06-10T11:32:29.907Z,41.63
2019-06-10T11:33:32.648Z,41.63
2019-06-10T11:34:29.867Z,41.12
2019-06-10T11:35:29.846Z,42.10
2019-06-10T11:36:29.843Z,40.35
2019-06-10T11:37:29.854Z,41.12
2019-06-10T11:38:32.592Z,41.91
2019-06-10T11:39:29.801Z,41.06
2019-06-10T11:40:29.793Z,41.95
2019-06-10T11:41:32.282Z,42.13
2019-06-10T11:42:29.923Z,41.91
2019-06-10T11:43:29.790Z,40.13
2019-06-10T11:44:29.772Z,43.29
2019-06-10T11:45:29.755Z,42.34
2019-06-10T11:46:29.736Z,43.23
2019-06-10T11:47:30.309Z,43.49
2019-06-10T11:48:29.734Z,44.87
2019-06-10T11:49:29.697Z,43.05
2019-06-10T11:50:29.693Z,41.77
2019-06-10T11:51:29.673Z,41.47
2019-06-10T11:52:29.702Z,42.29
2019-06-10T11:53:29.696Z,41.91
2019-06-10T11:54:29.691Z,42.21
2019-06-10T11:55:29.685Z,42.19
2019-06-10T11:56:29.642Z,42.58
2019-06-10T11:57:29.619Z,41.97
2019-06-10T11:58:29.679Z,42.16
2019-06-10T11:59:29.619Z,40.88
2019-06-10T12:00:32.418Z,41.17
2019-06-10T12:01:29.568Z,40.98
2019-06-10T12:02:29.567Z,42.08
2019-06-10T12:03:29.599Z,43.10
2019-06-10T12:04:29.557Z,44.09
2019-06-10T12:05:32.447Z,42.90
2019-06-10T12:06:29.549Z,42.43
2019-06-10T12:07:29.536Z,44.13
2019-06-10T12:08:29.565Z,44.86
2019-06-10T12:09:29.491Z,44.46
2019-06-10T12:10:29.478Z,45.28
2019-06-10T12:11:29.476Z,44.56
2019-06-10T12:12:29.458Z,45.97
2019-06-10T12:13:29.490Z,46.69
2019-06-10T12:14:29.449Z,44.46
2019-06-10T12:15:29.465Z,44.96
2019-06-10T12:17:42.910Z,44.84
2019-06-10T12:18:33.081Z,46.82
2019-06-10T12:19:29.416Z,45.14
2019-06-10T12:20:29.376Z,45.45
2019-06-10T12:21:29.372Z,46.77
2019-06-10T12:22:29.373Z,46.45
2019-06-10T12:23:29.431Z,45.95
2019-06-10T12:24:29.350Z,44.24
2019-06-10T12:25:36.828Z,44.19
2019-06-10T12:26:30.327Z,45.26
2019-06-10T12:27:29.310Z,44.76
2019-06-10T12:28:29.341Z,45.57
2019-06-10T12:29:29.293Z,45.97
2019-06-10T12:30:29.293Z,45.87
2019-06-10T12:31:29.291Z,45.08
2019-06-10T12:32:29.257Z,46.42
2019-06-10T12:33:29.278Z,46.02
2019-06-10T12:34:29.251Z,46.93
2019-06-10T12:35:29.276Z,47.05
2019-06-10T12:36:29.223Z,48.32
2019-06-10T12:37:29.209Z,46.93
2019-06-10T12:38:29.241Z,46.81
2019-06-10T12:39:29.209Z,47.90
2019-06-10T12:40:29.172Z,47.28
2019-06-10T12:41:29.179Z,46.91
2019-06-10T12:42:29.184Z,48.02
2019-06-10T12:43:29.190Z,47.71
2019-06-10T12:44:29.127Z,47.03
2019-06-10T12:45:29.120Z,47.21
2019-06-10T12:46:29.122Z,47.63
2019-06-10T12:47:29.088Z,46.44
2019-06-10T12:48:29.128Z,47.43
2019-06-10T12:49:29.099Z,47.01
2019-06-10T12:50:29.070Z,47.61
2019-06-10T12:51:29.067Z,46.89
2019-06-10T12:52:29.080Z,47.19
2019-06-10T12:53:29.059Z,46.42